Time;durP1;ratioP1;P1;durP2;ratioP2;P2;SDS_P1;SDS_P2;PMS_P1;PMS_P2;Temp;Humidity;BMP_temperature;BMP_pressure;BME280_temperature;BME280_humidity;BME280_pressure;Samples;Min_cycle;Max_cycle;Signal;HPM_P1;HPM_P2
2023/12/20 00:01:04;;;;;;;;;;;;;;;19.64;44.57;97210.63;618900;229;65460;-68
2023/12/20 00:03:31;;;;;;;;;;;;;;;19.64;44.53;97202.63;618958;229;62921;-68
2023/12/20 00:05:59;;;;;;;;;;;;;;;19.66;44.52;97211.19;618968;229;64556;-68
2023/12/20 00:08:26;;;;;;;;;;;;;;;19.64;44.50;97202.63;618932;229;65039;-68
2023/12/20 00:10:54;;;;;;;;;;;;;;;19.62;44.56;97202.08;618932;229;65322;-68
2023/12/20 00:13:21;;;;;;;;;;;;;;;19.63;44.64;97200.20;618890;229;65696;-68
2023/12/20 00:15:49;;;;;;;;;;;;;;;19.62;44.79;97194.08;618955;229;65783;-68
2023/12/20 00:18:16;;;;;;;;;;;;;;;19.61;44.59;97184.45;618886;229;64807;-68
2023/12/20 00:20:44;;;;;;;;;;;;;;;19.61;44.63;97192.45;618930;229;64547;-68
2023/12/20 00:23:11;;;;;;;;;;;;;;;19.60;44.58;97188.19;618896;227;63088;-68
2023/12/20 00:25:39;;;;;;;;;;;;;;;19.63;44.56;97189.54;618958;229;65041;-72
2023/12/20 00:28:06;;;;;;;;;;;;;;;19.60;44.50;97180.20;619005;229;64610;-73
2023/12/20 00:30:34;;;;;;;;;;;;;;;19.60;44.44;97180.20;618964;229;65436;-73
2023/12/20 00:33:02;;;;;;;;;;;;;;;19.63;44.43;97181.55;618966;229;65060;-73
2023/12/20 00:35:29;;;;;;;;;;;;;;;19.62;44.41;97175.41;618963;229;64552;-68
2023/12/20 00:37:57;;;;;;;;;;;;;;;19.62;44.40;97174.62;618927;229;65533;-68
2023/12/20 00:40:24;;;;;;;;;;;;;;;19.61;44.40;97171.13;618970;229;65139;-68
2023/12/20 00:42:52;;;;;;;;;;;;;;;19.61;44.40;97165.80;618992;229;64532;-67
2023/12/20 00:45:19;;;;;;;;;;;;;;;19.62;44.41;97169.28;618924;229;65522;-67
2023/12/20 00:47:47;;;;;;;;;;;;;;;19.60;44.41;97161.53;618978;229;64918;-68
2023/12/20 00:50:14;;;;;;;;;;;;;;;19.63;44.40;97163.67;618956;229;64600;-68
2023/12/20 00:52:42;;;;;;;;;;;;;;;19.60;44.41;97158.87;618954;229;65616;-68
2023/12/20 00:55:09;;;;;;;;;;;;;;;19.61;44.40;97151.66;619000;229;64836;-67
2023/12/20 00:57:37;;;;;;;;;;;;;;;19.59;44.36;97148.45;618929;229;64591;-68
2023/12/20 01:00:05;;;;;;;;;;;;;;;19.60;44.35;97142.87;618980;229;65590;-68
2023/12/20 01:02:32;;;;;;;;;;;;;;;19.60;44.36;97140.20;618927;229;66449;-68
2023/12/20 01:05:00;;;;;;;;;;;;;;;19.60;44.32;97134.08;618954;229;62767;-67
2023/12/20 01:07:27;;;;;;;;;;;;;;;19.61;44.34;97131.13;619012;229;63174;-68
2023/12/20 01:09:54;;;;;;;;;;;;;;;19.61;44.32;97136.47;618929;229;63100;-67
2023/12/20 01:12:22;;;;;;;;;;;;;;;19.62;44.31;97134.63;618937;229;62503;-68
2023/12/20 01:14:50;;;;;;;;;;;;;;;19.60;44.31;97126.87;618948;229;63362;-72
2023/12/20 01:17:17;;;;;;;;;;;;;;;19.59;44.29;97130.61;618965;229;65282;-73
2023/12/20 01:19:44;;;;;;;;;;;;;;;19.60;44.31;97126.87;619009;229;64816;-72
2023/12/20 01:22:12;;;;;;;;;;;;;;;19.61;44.25;97120.47;620844;227;64914;-72
2023/12/20 01:24:39;;;;;;;;;;;;;;;19.60;44.31;97116.21;624180;227;65044;-67
2023/12/20 01:27:07;;;;;;;;;;;;;;;19.59;44.31;97117.28;624176;227;64603;-68
2023/12/20 01:29:34;;;;;;;;;;;;;;;19.60;44.32;97108.22;624210;227;65752;-68
2023/12/20 01:32:02;;;;;;;;;;;;;;;19.59;44.33;97109.28;624213;227;65375;-68
2023/12/20 01:34:29;;;;;;;;;;;;;;;19.59;44.38;97097.80;624184;227;64637;-68
2023/12/20 01:36:57;;;;;;;;;;;;;;;19.59;44.37;97097.80;624178;227;63025;-67
2023/12/20 01:39:24;;;;;;;;;;;;;;;19.59;44.41;97103.13;624173;227;64992;-68
2023/12/20 01:41:52;;;;;;;;;;;;;;;19.60;44.39;97094.09;624185;227;63335;-68
2023/12/20 01:44:19;;;;;;;;;;;;;;;19.59;44.45;97092.47;624183;227;65462;-68
2023/12/20 01:46:47;;;;;;;;;;;;;;;19.58;44.36;97080.21;624260;227;65072;-68
2023/12/20 01:49:15;;;;;;;;;;;;;;;19.58;44.34;97074.87;624180;227;64587;-68
2023/12/20 01:51:43;;;;;;;;;;;;;;;19.57;44.28;97066.08;624147;227;65504;-68
2023/12/20 01:54:11;;;;;;;;;;;;;;;19.58;44.26;97070.34;624198;227;65168;-68
2023/12/20 01:56:39;;;;;;;;;;;;;;;19.57;44.26;97062.62;624187;227;64522;-68
2023/12/20 01:59:09;;;;;;;;;;;;;;;19.57;44.22;97051.96;624250;227;63053;-68
2023/12/20 02:01:36;;;;;;;;;;;;;;;19.58;44.21;97054.34;624084;227;65062;-68
2023/12/20 02:04:04;;;;;;;;;;;;;;;19.59;44.34;97052.48;624189;227;64631;-68
2023/12/20 02:06:33;;;;;;;;;;;;;;;19.55;44.31;97038.08;624154;227;65754;-68
2023/12/20 02:09:01;;;;;;;;;;;;;;;19.57;44.24;97041.30;624271;227;64807;-68
2023/12/20 02:11:29;;;;;;;;;;;;;;;19.57;44.22;97042.09;624188;227;64428;-68
2023/12/20 02:13:56;;;;;;;;;;;;;;;19.57;44.21;97031.43;624195;227;63114;-68
2023/12/20 02:16:24;;;;;;;;;;;;;;;19.55;44.61;97025.55;624160;227;65725;-68
2023/12/20 02:18:51;;;;;;;;;;;;;;;19.52;44.73;97018.08;624149;227;62424;-68
2023/12/20 02:21:19;;;;;;;;;;;;;;;19.55;44.61;97017.55;624220;227;63162;-68
2023/12/20 02:23:46;;;;;;;;;;;;;;;19.56;44.63;97024.50;618991;229;62917;-68
2023/12/20 02:26:14;;;;;;;;;;;;;;;19.54;44.66;97018.63;618926;229;64526;-68
2023/12/20 02:28:41;;;;;;;;;;;;;;;19.56;44.28;97018.34;618942;229;64016;-68
2023/12/20 02:31:08;;;;;;;;;;;;;;;19.51;44.23;97006.63;618909;229;65038;-67
2023/12/20 02:33:36;;;;;;;;;;;;;;;19.54;44.22;97012.50;618969;229;64541;-68
2023/12/20 02:36:04;;;;;;;;;;;;;;;19.55;44.18;97003.42;618973;229;64926;-68
2023/12/20 02:38:31;;;;;;;;;;;;;;;19.55;44.27;97001.56;618942;229;62914;-68
2023/12/20 02:40:58;;;;;;;;;;;;;;;19.56;44.19;96999.69;618924;229;63528;-68
2023/12/20 02:43:26;;;;;;;;;;;;;;;19.55;44.19;97000.77;618930;229;65698;-68
2023/12/20 02:45:53;;;;;;;;;;;;;;;19.55;44.16;96998.89;618903;229;62952;-68
2023/12/20 02:48:21;;;;;;;;;;;;;;;19.56;44.16;96994.36;618977;229;64641;-68
2023/12/20 02:50:49;;;;;;;;;;;;;;;19.56;44.13;96992.52;618959;229;65559;-73
2023/12/20 02:53:16;;;;;;;;;;;;;;;19.57;44.16;96987.98;618924;229;65231;-73
2023/12/20 02:55:44;;;;;;;;;;;;;;;19.52;44.19;96976.23;618942;229;64542;-68
2023/12/20 02:58:11;;;;;;;;;;;;;;;19.55;44.10;96979.44;618952;229;64943;-68
2023/12/20 03:00:39;;;;;;;;;;;;;;;19.54;44.23;96972.52;619001;229;64946;-68
2023/12/20 03:03:06;;;;;;;;;;;;;;;19.55;44.31;96974.11;618941;229;64437;-68
2023/12/20 03:05:33;;;;;;;;;;;;;;;19.55;44.45;96976.77;618919;229;65197;-68
2023/12/20 03:08:01;;;;;;;;;;;;;;;19.52;44.57;96973.56;618976;229;64781;-67
2023/12/20 03:10:28;;;;;;;;;;;;;;;19.54;44.71;96977.84;618948;229;64611;-73
2023/12/20 03:12:56;;;;;;;;;;;;;;;19.53;44.71;96969.02;618967;229;64940;-73
2023/12/20 03:15:23;;;;;;;;;;;;;;;19.50;44.68;96962.35;618950;229;62696;-72
2023/12/20 03:17:51;;;;;;;;;;;;;;;19.52;44.34;96962.10;618949;229;62451;-73
2023/12/20 03:20:18;;;;;;;;;;;;;;;19.53;44.10;96966.36;618898;229;62747;-72
2023/12/20 03:22:46;;;;;;;;;;;;;;;19.51;44.17;96958.64;622097;227;62655;-72
2023/12/20 03:25:13;;;;;;;;;;;;;;;19.51;44.17;96960.52;624212;227;62501;-72
2023/12/20 03:27:41;;;;;;;;;;;;;;;19.53;44.14;96958.36;624188;227;65737;-73
2023/12/20 03:30:08;;;;;;;;;;;;;;;19.52;44.11;96954.91;624200;227;65599;-73
2023/12/20 03:32:37;;;;;;;;;;;;;;;19.54;44.04;96953.86;624164;227;64549;-72
2023/12/20 03:35:05;;;;;;;;;;;;;;;19.52;44.27;96957.56;624149;227;63323;-72
2023/12/20 03:37:32;;;;;;;;;;;;;;;19.55;44.02;96950.12;624158;227;62975;-72
2023/12/20 03:40:00;;;;;;;;;;;;;;;19.52;44.06;96943.45;624172;227;62455;-73
2023/12/20 03:42:27;;;;;;;;;;;;;;;19.51;44.03;96936.52;624181;227;65329;-73
2023/12/20 03:44:55;;;;;;;;;;;;;;;19.54;44.12;96940.53;624171;227;62925;-72
2023/12/20 03:47:22;;;;;;;;;;;;;;;19.52;44.14;96935.45;624200;227;62458;-73
2023/12/20 03:49:50;;;;;;;;;;;;;;;19.51;44.80;96929.32;624156;227;62807;-73
2023/12/20 03:52:17;;;;;;;;;;;;;;;19.52;44.67;96932.78;624240;227;62873;-72
2023/12/20 03:54:45;;;;;;;;;;;;;;;19.50;44.67;96922.37;624165;227;62488;-73
2023/12/20 03:57:12;;;;;;;;;;;;;;;19.49;44.52;96917.32;624147;227;64465;-72
2023/12/20 03:59:40;;;;;;;;;;;;;;;19.49;44.17;96918.12;624224;227;64981;-73
2023/12/20 04:02:08;;;;;;;;;;;;;;;19.50;44.05;96913.58;624210;227;62409;-73
2023/12/20 04:04:35;;;;;;;;;;;;;;;19.49;44.13;96907.45;624231;227;63915;-73
2023/12/20 04:07:03;;;;;;;;;;;;;;;19.50;44.14;96911.71;624187;227;62919;-72
2023/12/20 04:09:31;;;;;;;;;;;;;;;19.51;44.09;96915.20;624220;227;62255;-73
2023/12/20 04:11:58;;;;;;;;;;;;;;;19.50;44.01;96908.25;624220;227;62800;-73
2023/12/20 04:14:25;;;;;;;;;;;;;;;19.47;44.26;96903.45;624245;227;65024;-73
2023/12/20 04:16:53;;;;;;;;;;;;;;;19.51;44.17;96915.20;624229;227;64870;-73
2023/12/20 04:19:20;;;;;;;;;;;;;;;19.50;44.04;96908.25;624172;227;64947;-73
2023/12/20 04:21:48;;;;;;;;;;;;;;;19.50;44.08;96902.92;624212;227;64776;-72
2023/12/20 04:24:15;;;;;;;;;;;;;;;19.50;44.09;96900.25;624224;227;64576;-73
2023/12/20 04:26:43;;;;;;;;;;;;;;;19.50;44.60;96902.92;624214;227;65195;-72
2023/12/20 04:29:11;;;;;;;;;;;;;;;19.49;45.21;96898.66;624277;227;64872;-72
2023/12/20 04:31:38;;;;;;;;;;;;;;;19.47;44.67;96892.79;624259;227;65757;-72
2023/12/20 04:34:06;;;;;;;;;;;;;;;19.48;44.91;96891.74;624186;227;64957;-73
2023/12/20 04:36:34;;;;;;;;;;;;;;;19.48;45.43;96889.08;624242;227;64416;-73
2023/12/20 04:39:01;;;;;;;;;;;;;;;19.47;44.00;96876.80;624186;227;65477;-72
2023/12/20 04:41:29;;;;;;;;;;;;;;;19.49;44.19;96885.34;623897;227;64875;-72
2023/12/20 04:43:56;;;;;;;;;;;;;;;19.45;44.14;96881.58;624037;227;65047;-72
2023/12/20 04:46:24;;;;;;;;;;;;;;;19.44;44.13;96875.45;623994;227;64406;-72
2023/12/20 04:48:51;;;;;;;;;;;;;;;19.48;43.93;96883.75;623991;227;62747;-72
2023/12/20 04:51:19;;;;;;;;;;;;;;;19.46;44.10;96880.54;624036;227;64811;-72
2023/12/20 04:53:46;;;;;;;;;;;;;;;19.48;44.00;96878.42;623914;227;64585;-73
2023/12/20 04:56:13;;;;;;;;;;;;;;;19.47;43.99;96876.80;624064;227;65264;-73
2023/12/20 04:58:41;;;;;;;;;;;;;;;19.46;44.03;96867.22;624220;227;62725;-72
2023/12/20 05:01:09;;;;;;;;;;;;;;;19.46;44.11;96862.68;624187;227;63430;-73
2023/12/20 05:03:36;;;;;;;;;;;;;;;19.47;44.10;96866.14;624201;227;62500;-73
2023/12/20 05:06:04;;;;;;;;;;;;;;;19.47;44.34;96860.81;624233;227;64854;-73
2023/12/20 05:08:31;;;;;;;;;;;;;;;19.45;44.81;96865.59;624211;227;64603;-73
2023/12/20 05:10:59;;;;;;;;;;;;;;;19.46;45.57;96859.22;624226;227;66457;-73
2023/12/20 05:13:26;;;;;;;;;;;;;;;19.46;44.76;96861.88;623999;227;64690;-73
2023/12/20 05:15:54;;;;;;;;;;;;;;;19.43;44.49;96849.88;623971;227;62450;-73
2023/12/20 05:18:22;;;;;;;;;;;;;;;19.45;44.22;96858.42;623978;227;63008;-73
2023/12/20 05:20:51;;;;;;;;;;;;;;;19.46;44.01;96854.68;624039;227;64998;-73
2023/12/20 05:23:20;;;;;;;;;;;;;;;19.46;44.24;96843.23;623954;227;64527;-73
2023/12/20 05:25:47;;;;;;;;;;;;;;;19.45;44.02;96849.60;623960;227;62846;-73
2023/12/20 05:28:16;;;;;;;;;;;;;;;19.45;43.97;96852.27;623967;227;63567;-73
2023/12/20 05:30:43;;;;;;;;;;;;;;;19.45;44.48;96842.43;623988;227;62427;-73
2023/12/20 05:33:11;;;;;;;;;;;;;;;19.46;44.04;96851.22;624001;227;62797;-73
2023/12/20 05:36:54;;;;;;;;;;;;;;;19.56;44.11;96837.09;635812;222;35337;-73
2023/12/20 05:39:22;;;;;;;;;;;;;;;19.45;44.42;96830.95;628088;226;62388;-73
2023/12/20 05:41:50;;;;;;;;;;;;;;;19.45;44.47;96822.95;627696;226;62197;-73
2023/12/20 05:44:17;;;;;;;;;;;;;;;19.43;44.27;96819.77;627642;226;61906;-73
2023/12/20 05:46:45;;;;;;;;;;;;;;;19.45;46.32;96828.28;624242;227;62471;-74
2023/12/20 05:49:13;;;;;;;;;;;;;;;19.42;44.73;96815.49;624142;227;64511;-73
2023/12/20 05:51:41;;;;;;;;;;;;;;;19.41;44.09;96819.23;624242;227;64055;-73
2023/12/20 05:54:08;;;;;;;;;;;;;;;19.44;44.14;96811.50;624284;227;64609;-74
2023/12/20 05:56:36;;;;;;;;;;;;;;;19.44;44.11;96816.03;624215;227;64445;-74
2023/12/20 05:59:03;;;;;;;;;;;;;;;19.42;44.04;96810.95;624209;227;63002;-73
2023/12/20 06:01:31;;;;;;;;;;;;;;;19.42;44.19;96810.16;624106;227;62566;-74
2023/12/20 06:03:59;;;;;;;;;;;;;;;19.44;44.09;96810.70;624208;227;62271;-74
2023/12/20 06:06:26;;;;;;;;;;;;;;;19.44;43.87;96808.04;624266;227;62057;-74
2023/12/20 06:08:54;;;;;;;;;;;;;;;19.45;44.21;96809.63;624220;227;62670;-74
2023/12/20 06:11:21;;;;;;;;;;;;;;;19.44;44.04;96808.04;624185;227;64516;-73
2023/12/20 06:13:51;;;;;;;;;;;;;;;19.43;44.13;96798.45;624159;227;64208;-73
2023/12/20 06:16:18;;;;;;;;;;;;;;;19.42;44.17;96794.17;624167;227;65774;-74
2023/12/20 06:18:45;;;;;;;;;;;;;;;19.43;44.18;96801.91;624210;227;64446;-73
2023/12/20 06:21:13;;;;;;;;;;;;;;;19.43;45.31;96796.58;624202;227;64155;-74
2023/12/20 06:23:40;;;;;;;;;;;;;;;19.42;44.93;96794.97;624161;227;64710;-74
2023/12/20 06:26:08;;;;;;;;;;;;;;;19.40;46.64;96797.13;624126;227;64410;-73
2023/12/20 06:28:35;;;;;;;;;;;;;;;19.40;45.74;96799.78;624190;227;64222;-73
2023/12/20 06:31:03;;;;;;;;;;;;;;;19.41;44.42;96792.58;624166;227;64628;-74
2023/12/20 06:33:34;;;;;;;;;;;;;;;19.40;44.13;96788.33;624255;227;64634;-73
2023/12/20 06:36:01;;;;;;;;;;;;;;;19.41;44.19;96781.92;620784;227;62148;-74
2023/12/20 06:38:29;;;;;;;;;;;;;;;19.40;44.06;96785.66;618866;229;62270;-73
2023/12/20 06:40:58;;;;;;;;;;;;;;;19.42;43.96;96786.17;618979;229;62287;-73
2023/12/20 06:43:26;;;;;;;;;;;;;;;19.40;44.40;96786.46;618921;229;64126;-74
2023/12/20 06:45:53;;;;;;;;;;;;;;;19.41;43.96;96793.38;619019;229;64609;-74
2023/12/20 06:48:20;;;;;;;;;;;;;;;19.43;44.04;96793.13;618733;229;64635;-74
2023/12/20 06:50:48;;;;;;;;;;;;;;;19.41;44.11;96787.25;618863;229;64263;-74
2023/12/20 06:53:16;;;;;;;;;;;;;;;19.41;44.43;96789.92;618837;229;64570;-74
2023/12/20 06:55:44;;;;;;;;;;;;;;;19.40;45.91;96791.79;618790;229;64241;-74
2023/12/20 06:58:11;;;;;;;;;;;;;;;19.39;45.94;96787.50;618878;229;64196;-74
2023/12/20 07:00:38;;;;;;;;;;;;;;;19.40;45.79;96783.80;618749;229;64611;-74
2023/12/20 07:03:06;;;;;;;;;;;;;;;19.38;48.14;96787.79;618827;229;64245;-73
2023/12/20 07:05:33;;;;;;;;;;;;;;;19.36;46.09;96776.59;618810;229;62101;-73
2023/12/20 07:08:01;;;;;;;;;;;;;;;19.37;44.24;96775.52;618706;229;64412;-73
2023/12/20 07:10:28;;;;;;;;;;;;;;;19.38;44.26;96769.93;618806;229;64661;-73
2023/12/20 07:12:56;;;;;;;;;;;;;;;19.37;44.11;96765.67;618139;229;64172;-74
2023/12/20 07:15:23;;;;;;;;;;;;;;;19.37;46.94;96765.67;618556;229;64677;-74
2023/12/20 07:17:51;;;;;;;;;;;;;;;19.38;43.78;96769.14;618780;229;62235;-75
2023/12/20 07:20:18;;;;;;;;;;;;;;;19.40;44.54;96764.34;618638;229;64151;-74
2023/12/20 07:22:46;;;;;;;;;;;;;;;19.37;45.29;96756.86;618543;229;63436;-72
2023/12/20 07:25:13;;;;;;;;;;;;;;;19.40;44.09;96759.02;618695;229;62205;-75
2023/12/20 07:27:41;;;;;;;;;;;;;;;19.41;44.20;96756.07;618728;229;65314;-74
2023/12/20 07:30:09;;;;;;;;;;;;;;;19.43;43.66;96748.61;618768;229;64558;-73
2023/12/20 07:34:46;;;;;;;;;;;;;;;19.61;43.79;96733.92;638179;222;36147;-75
2023/12/20 07:37:13;;;;;;;;;;;;;;;19.50;44.73;96732.34;629936;224;64533;-71
2023/12/20 07:39:41;;;;;;;;;;;;;;;19.48;50.34;96731.83;626089;224;65360;-73
2023/12/20 07:42:09;;;;;;;;;;;;;;;19.46;45.19;96731.30;632130;224;64094;-71
2023/12/20 07:44:37;;;;;;;;;;;;;;;19.45;51.01;96741.16;632201;224;64577;-71
2023/12/20 07:47:04;;;;;;;;;;;;;;;19.40;52.92;96737.70;632206;224;62145;-70
2023/12/20 07:49:32;;;;;;;;;;;;;;;19.41;54.72;96733.95;632207;224;64023;-71
2023/12/20 07:51:59;;;;;;;;;;;;;;;19.39;54.32;96733.41;632147;224;64608;-72
2023/12/20 07:54:27;;;;;;;;;;;;;;;19.36;52.93;96729.42;632167;224;64461;-71
2023/12/20 07:56:54;;;;;;;;;;;;;;;19.35;49.20;96729.70;632200;224;64054;-73
2023/12/20 07:59:22;;;;;;;;;;;;;;;19.37;49.42;96731.03;632175;224;64524;-73
2023/12/20 08:01:49;;;;;;;;;;;;;;;19.38;49.32;96729.16;632102;224;62296;-73
2023/12/20 08:04:17;;;;;;;;;;;;;;;19.37;48.45;96730.21;632221;224;64175;-74
2023/12/20 08:06:44;;;;;;;;;;;;;;;19.40;46.87;96727.05;632262;224;62446;-74
2023/12/20 08:09:12;;;;;;;;;;;;;;;19.41;45.01;96726.75;632137;224;62180;-74
2023/12/20 08:11:39;;;;;;;;;;;;;;;19.42;45.07;96723.02;632178;224;64172;-74
2023/12/20 08:14:07;;;;;;;;;;;;;;;19.42;44.50;96725.68;632233;224;64711;-73
2023/12/20 08:16:34;;;;;;;;;;;;;;;19.43;45.05;96719.30;632181;224;64506;-73
2023/12/20 08:19:02;;;;;;;;;;;;;;;19.41;47.09;96713.43;632173;224;64651;-72
2023/12/20 08:21:29;;;;;;;;;;;;;;;19.43;47.57;96710.52;632246;224;64585;-73
2023/12/20 08:23:57;;;;;;;;;;;;;;;19.43;47.65;96702.52;632176;224;64477;-73
2023/12/20 08:26:24;;;;;;;;;;;;;;;19.41;52.73;96696.65;632279;224;64126;-75
2023/12/20 08:28:52;;;;;;;;;;;;;;;19.36;47.59;96693.98;632239;224;64520;-75
2023/12/20 08:31:20;;;;;;;;;;;;;;;19.41;44.91;96688.66;632151;224;62171;-75
2023/12/20 08:33:49;;;;;;;;;;;;;;;19.40;45.40;96679.08;632722;224;64426;-75
2023/12/20 08:36:17;;;;;;;;;;;;;;;19.42;45.36;96682.25;633143;224;65830;-73
2023/12/20 08:38:45;;;;;;;;;;;;;;;19.42;45.55;96677.71;633091;224;62219;-77
2023/12/20 08:41:14;;;;;;;;;;;;;;;19.42;43.81;96667.05;633138;224;62946;-72
2023/12/20 08:43:41;;;;;;;;;;;;;;;19.43;44.10;96654.55;633062;224;62584;-75
2023/12/20 08:46:12;;;;;;;;;;;;;;;19.45;44.04;96663.05;632919;224;62271;-75
2023/12/20 08:48:39;;;;;;;;;;;;;;;19.44;44.02;96656.93;633016;224;62165;-75
2023/12/20 08:51:08;;;;;;;;;;;;;;;19.47;44.23;96652.92;632977;224;62412;-75
2023/12/20 08:53:36;;;;;;;;;;;;;;;19.44;45.51;96646.27;632917;224;64395;-75
2023/12/20 08:56:03;;;;;;;;;;;;;;;19.44;45.56;96637.48;633112;224;64275;-76
2023/12/20 09:00:10;;;;;;;;;;;;;;;19.55;46.08;96614.27;636090;222;36149;-75
2023/12/20 09:02:38;;;;;;;;;;;;;;;19.43;52.00;96617.24;626243;226;62520;-74
2023/12/20 09:05:06;;;;;;;;;;;;;;;19.43;51.00;96618.03;626199;226;66771;-76
2023/12/20 09:07:34;;;;;;;;;;;;;;;19.43;44.74;96601.25;626240;226;63997;-74
2023/12/20 09:10:01;;;;;;;;;;;;;;;19.43;44.37;96599.38;626326;226;64631;-75
2023/12/20 09:12:29;;;;;;;;;;;;;;;19.45;44.30;96596.42;626222;226;64454;-73
2023/12/20 09:14:56;;;;;;;;;;;;;;;19.46;43.90;96590.05;626286;225;64086;-74
2023/12/20 09:17:24;;;;;;;;;;;;;;;19.45;44.48;96580.44;626160;226;64536;-73
2023/12/20 09:19:53;;;;;;;;;;;;;;;19.47;44.52;96572.98;626186;226;64405;-75
2023/12/20 09:22:20;;;;;;;;;;;;;;;19.44;50.67;96560.20;626273;226;64094;-75
2023/12/20 09:24:48;;;;;;;;;;;;;;;19.45;49.73;96559.94;626280;226;64624;-76
2023/12/20 09:27:15;;;;;;;;;;;;;;;19.45;45.05;96559.12;626211;226;64358;-75
2023/12/20 09:29:43;;;;;;;;;;;;;;;19.46;44.69;96555.41;625791;226;62919;-75
2023/12/20 09:32:10;;;;;;;;;;;;;;;19.45;44.46;96543.13;625871;227;62470;-74
2023/12/20 09:34:38;;;;;;;;;;;;;;;19.47;44.43;96541.00;625856;227;64422;-75
2023/12/20 09:37:05;;;;;;;;;;;;;;;19.43;45.22;96535.42;625918;227;64122;-76
2023/12/20 09:39:33;;;;;;;;;;;;;;;19.46;44.88;96534.09;625865;227;62491;-74
2023/12/20 09:42:04;;;;;;;;;;;;;;;19.45;45.04;96537.80;625835;227;62393;-75
2023/12/20 09:44:36;;;;;;;;;;;;;;;19.48;47.26;96531.95;625877;227;63167;-74
2023/12/20 09:47:04;;;;;;;;;;;;;;;19.43;51.82;96515.98;625919;227;62504;-73
2023/12/20 09:49:33;;;;;;;;;;;;;;;19.44;47.89;96507.70;625654;227;62435;-75
2023/12/20 09:52:01;;;;;;;;;;;;;;;19.44;45.90;96510.36;625696;227;63890;-76
2023/12/20 09:54:30;;;;;;;;;;;;;;;19.44;45.00;96506.91;625705;227;64567;-74
2023/12/20 09:56:58;;;;;;;;;;;;;;;19.46;44.43;96508.23;625627;227;64636;-74
2023/12/20 09:59:25;;;;;;;;;;;;;;;19.47;44.37;96493.03;624688;227;64204;-74
2023/12/20 10:01:54;;;;;;;;;;;;;;;19.49;44.66;96493.56;624273;227;64623;-75
2023/12/20 10:04:21;;;;;;;;;;;;;;;19.46;44.54;96481.58;624389;227;62225;-73
2023/12/20 10:06:49;;;;;;;;;;;;;;;19.45;44.56;96471.18;624370;227;62197;-74
2023/12/20 10:09:16;;;;;;;;;;;;;;;19.49;44.91;96472.24;624248;227;62353;-75
2023/12/20 10:11:44;;;;;;;;;;;;;;;19.49;44.27;96464.25;624147;227;64785;-74
2023/12/20 10:14:11;;;;;;;;;;;;;;;19.49;44.43;96458.91;624140;227;64402;-72
2023/12/20 10:16:39;;;;;;;;;;;;;;;19.51;44.44;96456.78;624216;227;64718;-77
2023/12/20 10:19:06;;;;;;;;;;;;;;;19.51;44.21;96452.24;624218;227;65156;-75
2023/12/20 10:21:34;;;;;;;;;;;;;;;19.52;44.17;96442.37;624193;227;65077;-71
2023/12/20 10:24:01;;;;;;;;;;;;;;;19.51;44.13;96443.45;624158;227;62514;-76
2023/12/20 10:26:29;;;;;;;;;;;;;;;19.51;44.12;96433.59;624189;227;64299;-76
2023/12/20 10:28:58;;;;;;;;;;;;;;;19.51;44.12;96435.47;624214;227;64174;-75
2023/12/20 10:31:32;;;;;;;;;;;;;;;19.51;44.18;96432.80;624124;227;62742;-75
2023/12/20 10:34:01;;;;;;;;;;;;;;;19.51;44.39;96432.80;624200;227;64465;-72
2023/12/20 10:36:29;;;;;;;;;;;;;;;19.51;44.37;96425.59;624192;227;64270;-75
2023/12/20 10:39:01;;;;;;;;;;;;;;;19.51;44.48;96414.14;624113;227;64545;-75
2023/12/20 10:41:30;;;;;;;;;;;;;;;19.50;44.48;96417.86;624236;227;62328;-70
2023/12/20 10:44:02;;;;;;;;;;;;;;;19.50;44.43;96418.66;624022;227;62120;-75
2023/12/20 10:46:32;;;;;;;;;;;;;;;19.51;44.50;96414.94;624203;227;64670;-77
2023/12/20 10:49:01;;;;;;;;;;;;;;;19.48;44.41;96404.83;624221;227;64619;-77
2023/12/20 10:51:32;;;;;;;;;;;;;;;19.52;44.47;96411.19;624143;227;64220;-76
2023/12/20 10:53:59;;;;;;;;;;;;;;;19.51;44.56;96404.27;624178;227;64664;-77
2023/12/20 10:56:28;;;;;;;;;;;;;;;19.53;44.44;96401.31;624244;227;64475;-77
2023/12/20 10:58:56;;;;;;;;;;;;;;;19.52;44.43;96397.06;622959;227;62098;-75
2023/12/20 11:01:24;;;;;;;;;;;;;;;19.50;44.58;96385.88;621575;228;64589;-76
2023/12/20 11:03:52;;;;;;;;;;;;;;;19.52;44.47;96389.07;622008;228;64443;-76
2023/12/20 11:06:27;;;;;;;;;;;;;;;19.52;44.45;96383.74;622000;228;64191;-77
2023/12/20 11:09:08;;;;;;;;;;;;;;;19.51;44.32;96382.16;618286;228;64577;-76
2023/12/20 11:11:30;;;;;;;;;;;;;;;19.53;44.36;96385.33;621568;228;64548;-75
2023/12/20 11:14:11;;;;;;;;;;;;;;;19.56;44.33;96378.64;621812;228;62962;-77
2023/12/20 11:16:38;;;;;;;;;;;;;;;19.55;44.34;96380.52;621901;228;62442;-76
2023/12/20 11:19:06;;;;;;;;;;;;;;;19.56;44.43;96379.47;622034;228;62275;-76
2023/12/20 11:21:34;;;;;;;;;;;;;;;19.56;44.51;96378.64;621925;228;64151;-74
2023/12/20 11:24:02;;;;;;;;;;;;;;;19.55;44.54;96372.52;622011;228;62438;-75
2023/12/20 11:26:30;;;;;;;;;;;;;;;19.56;44.46;96362.66;622014;228;64441;-75
2023/12/20 11:29:08;;;;;;;;;;;;;;;19.55;44.43;96361.08;621926;228;64087;-74
2023/12/20 11:31:37;;;;;;;;;;;;;;;19.56;44.40;96349.33;614475;228;62455;-75
2023/12/20 11:34:14;;;;;;;;;;;;;;;19.56;44.39;96350.15;621863;228;63262;-75
2023/12/20 11:36:42;;;;;;;;;;;;;;;19.56;44.38;96342.16;622066;228;64477;-75
2023/12/20 11:39:10;;;;;;;;;;;;;;;19.57;44.39;96343.73;621936;228;64559;-74
2023/12/20 11:41:37;;;;;;;;;;;;;;;19.57;44.42;96337.61;621893;228;62489;-75
2023/12/20 11:44:05;;;;;;;;;;;;;;;19.57;44.44;96335.73;621954;228;62429;-75
2023/12/20 11:46:33;;;;;;;;;;;;;;;19.56;44.46;96325.34;622027;228;64567;-74
2023/12/20 11:49:01;;;;;;;;;;;;;;;19.58;44.49;96325.87;621974;228;62222;-74
2023/12/20 11:51:31;;;;;;;;;;;;;;;19.57;44.47;96334.95;621906;228;62297;-76
2023/12/20 11:53:59;;;;;;;;;;;;;;;19.56;44.48;96320.83;622015;228;64671;-74
2023/12/20 11:56:26;;;;;;;;;;;;;;;19.58;44.55;96318.66;621918;228;64510;-74
2023/12/20 11:58:54;;;;;;;;;;;;;;;19.59;44.58;96308.80;623102;227;62120;-74
2023/12/20 12:01:21;;;;;;;;;;;;;;;19.60;44.58;96305.86;624356;227;62342;-74
2023/12/20 12:03:49;;;;;;;;;;;;;;;19.61;44.57;96293.33;619055;227;64410;-74
2023/12/20 12:06:16;;;;;;;;;;;;;;;19.62;44.60;96298.39;617681;230;64220;-74
2023/12/20 12:08:44;;;;;;;;;;;;;;;19.60;44.62;96289.87;617670;230;64559;-73
2023/12/20 12:11:11;;;;;;;;;;;;;;;19.62;44.61;96297.60;617624;230;64625;-74
2023/12/20 12:13:39;;;;;;;;;;;;;;;19.61;44.59;96290.66;617697;230;64205;-73
2023/12/20 12:16:06;;;;;;;;;;;;;;;19.60;44.61;96284.54;617711;230;64389;-75
2023/12/20 12:18:34;;;;;;;;;;;;;;;19.61;44.62;96282.66;617654;230;62294;-72
2023/12/20 12:21:07;;;;;;;;;;;;;;;19.61;44.65;96282.66;617683;230;64208;-72
2023/12/20 12:23:31;;;;;;;;;;;;;;;19.59;44.63;96266.97;617610;228;64511;-73
2023/12/20 12:25:58;;;;;;;;;;;;;;;19.58;44.66;96265.36;617674;230;64431;-72
2023/12/20 12:28:31;;;;;;;;;;;;;;;19.60;44.67;96268.55;617693;230;64339;-73
2023/12/20 12:30:59;;;;;;;;;;;;;;;19.62;44.72;96274.40;617708;230;62534;-72
2023/12/20 12:33:26;;;;;;;;;;;;;;;19.62;44.72;96265.61;617590;230;62128;-73
2023/12/20 12:35:54;;;;;;;;;;;;;;;19.62;44.72;96266.41;617692;230;62095;-75
2023/12/20 12:38:22;;;;;;;;;;;;;;;19.60;44.73;96255.22;617703;230;64620;-74
2023/12/20 12:40:50;;;;;;;;;;;;;;;19.61;44.74;96248.80;617682;230;62227;-75
2023/12/20 12:43:17;;;;;;;;;;;;;;;19.62;44.75;96247.75;617702;230;64133;-68
2023/12/20 12:45:45;;;;;;;;;;;;;;;19.63;44.79;96251.98;617634;230;62358;-72
2023/12/20 12:48:15;;;;;;;;;;;;;;;19.62;44.77;96252.29;617681;230;64640;-74
2023/12/20 12:50:43;;;;;;;;;;;;;;;19.62;44.75;96239.75;617718;230;64380;-73
2023/12/20 12:53:10;;;;;;;;;;;;;;;19.62;44.77;96242.41;617646;230;64346;-74
2023/12/20 12:55:38;;;;;;;;;;;;;;;19.64;44.75;96242.94;617649;230;64349;-72